createdAt,value
2023-03-12T00:00:04.523Z,99524.77
2023-03-12T00:02:37.084Z,99525.50
2023-03-12T00:05:10.997Z,99530.52
2023-03-12T00:07:43.249Z,99539.13
2023-03-12T00:10:16.176Z,99541.95
2023-03-12T00:12:49.267Z,99541.80
2023-03-12T00:15:19.997Z,99546.91
2023-03-12T00:17:52.347Z,99551.23
2023-03-12T00:20:26.432Z,99553.80
2023-03-12T00:22:58.708Z,99550.34
2023-03-12T00:25:31.036Z,99552.02
2023-03-12T00:28:03.335Z,99551.48
2023-03-12T00:30:35.672Z,99554.36
2023-03-12T00:33:08.548Z,99559.31
2023-03-12T00:35:41.969Z,99564.67
2023-03-12T00:38:14.301Z,99565.20
2023-03-12T00:40:47.044Z,99567.56
2023-03-12T00:43:19.323Z,99567.06
2023-03-12T00:45:51.613Z,99569.58
2023-03-12T00:48:23.874Z,99567.14
2023-03-12T00:50:56.168Z,99571.21
2023-03-12T00:53:28.486Z,99571.50
2023-03-12T00:56:00.867Z,99570.73
2023-03-12T00:58:33.256Z,99569.50
2023-03-12T01:01:06.027Z,99570.91
2023-03-12T01:03:38.404Z,99568.20
2023-03-12T01:06:10.989Z,99569.44
2023-03-12T01:08:43.459Z,99569.48
2023-03-12T01:11:18.646Z,99571.84
2023-03-12T01:13:51.629Z,99571.62
2023-03-12T01:16:28.359Z,99575.93
2023-03-12T01:19:02.013Z,99574.35
2023-03-12T01:21:34.781Z,99580.27
2023-03-12T01:24:05.621Z,99582.64
2023-03-12T01:26:37.991Z,99586.13
2023-03-12T01:29:10.262Z,99588.30
2023-03-12T01:31:42.457Z,99590.25
2023-03-12T01:34:15.028Z,99593.14
2023-03-12T01:36:47.875Z,99590.41
2023-03-12T01:39:20.127Z,99589.31
2023-03-12T01:41:52.278Z,99592.37
2023-03-12T01:44:24.631Z,99593.72
2023-03-12T01:46:57.002Z,99594.52
2023-03-12T01:49:30.591Z,99596.69
2023-03-12T01:52:05.471Z,99603.23
2023-03-12T01:54:41.460Z,99608.13
2023-03-12T01:57:16.557Z,99613.28
2023-03-12T01:59:50.523Z,99609.69
2023-03-12T02:02:27.315Z,99612.22
2023-03-12T02:05:05.518Z,99613.42
2023-03-12T02:07:38.260Z,99621.27
2023-03-12T02:10:11.932Z,99624.00
2023-03-12T02:12:44.414Z,99624.48
2023-03-12T02:15:16.758Z,99630.11
2023-03-12T02:17:49.028Z,99635.52
2023-03-12T02:20:25.038Z,99637.51
2023-03-12T02:23:01.823Z,99638.60
2023-03-12T02:25:40.006Z,99646.64
2023-03-12T02:28:15.838Z,99652.38
2023-03-12T02:30:50.621Z,99653.77
2023-03-12T02:33:22.969Z,99665.83
2023-03-12T02:35:55.837Z,99668.45
2023-03-12T02:38:36.592Z,99671.07
2023-03-12T02:41:13.591Z,99678.21
2023-03-12T02:43:47.799Z,99681.75
2023-03-12T02:46:20.433Z,99687.52
2023-03-12T02:48:53.554Z,99692.41
2023-03-12T02:51:26.082Z,99697.75
2023-03-12T02:53:58.389Z,99700.52
2023-03-12T02:56:31.146Z,99703.92
2023-03-12T02:59:04.541Z,99703.08
2023-03-12T03:01:37.140Z,99708.38
2023-03-12T03:04:08.803Z,99710.71
2023-03-12T03:06:43.393Z,99713.23
2023-03-12T03:09:15.670Z,99715.83
2023-03-12T03:11:47.988Z,99712.82
2023-03-12T03:14:20.438Z,99721.48
2023-03-12T03:16:52.752Z,99726.90
2023-03-12T03:19:24.988Z,99731.30
2023-03-12T03:21:57.285Z,99735.87
2023-03-12T03:24:29.596Z,99734.41
2023-03-12T03:27:02.082Z,99736.02
2023-03-12T03:29:34.385Z,99742.86
2023-03-12T03:32:07.410Z,99750.09
2023-03-12T03:34:40.327Z,99752.07
2023-03-12T03:37:12.777Z,99758.48
2023-03-12T03:39:45.078Z,99760.17
2023-03-12T03:42:17.492Z,99763.19
2023-03-12T03:44:49.799Z,99774.27
2023-03-12T03:47:22.188Z,99780.17
2023-03-12T03:49:54.548Z,99792.52
2023-03-12T03:52:26.864Z,99793.30
2023-03-12T03:54:59.628Z,99792.19
2023-03-12T03:57:31.984Z,99794.68
2023-03-12T04:00:09.045Z,99799.52
2023-03-12T04:02:41.814Z,99807.73
2023-03-12T04:05:16.185Z,99818.69
2023-03-12T04:07:48.600Z,99816.63
2023-03-12T04:10:21.084Z,99818.17
2023-03-12T04:12:54.148Z,99822.77
2023-03-12T04:15:26.712Z,99827.95
2023-03-12T04:17:59.047Z,99828.91
2023-03-12T04:20:31.382Z,99828.03
2023-03-12T04:23:03.622Z,99834.74
2023-03-12T04:25:35.942Z,99837.80
2023-03-12T04:28:08.893Z,99846.16
2023-03-12T04:30:41.369Z,99854.59
2023-03-12T04:33:13.835Z,99852.67
2023-03-12T04:35:53.782Z,99850.23
2023-03-12T04:38:27.009Z,99854.20
2023-03-12T04:41:03.165Z,99863.49
2023-03-12T04:43:36.122Z,99868.20
2023-03-12T04:46:09.214Z,99868.33
2023-03-12T04:48:41.783Z,99872.52
2023-03-12T04:51:14.143Z,99878.02
2023-03-12T04:53:46.589Z,99881.11
2023-03-12T04:56:18.898Z,99882.09
2023-03-12T04:58:51.172Z,99882.77
2023-03-12T05:01:31.733Z,99884.97
2023-03-12T05:04:04.935Z,99886.03
2023-03-12T05:06:38.555Z,99896.93
2023-03-12T05:09:10.972Z,99905.95
2023-03-12T05:11:43.464Z,99910.97
2023-03-12T05:14:15.959Z,99922.29
2023-03-12T05:16:48.196Z,99925.42
2023-03-12T05:19:20.501Z,99929.65
2023-03-12T05:21:52.777Z,99926.10
2023-03-12T05:24:25.076Z,99932.89
2023-03-12T05:26:57.360Z,99930.91
2023-03-12T05:29:29.796Z,99936.72
2023-03-12T05:32:02.051Z,99940.79
2023-03-12T05:34:34.756Z,99954.84
2023-03-12T05:37:07.164Z,99959.73
2023-03-12T05:39:39.611Z,99964.26
2023-03-12T05:42:12.029Z,99965.73
2023-03-12T05:44:44.817Z,99972.98
2023-03-12T05:47:17.174Z,99983.38
2023-03-12T05:49:49.547Z,99987.42
2023-03-12T05:52:21.798Z,99996.83
2023-03-12T05:54:55.114Z,100007.59
2023-03-12T05:57:27.466Z,100018.52
2023-03-12T05:59:59.850Z,100022.67
2023-03-12T06:02:32.280Z,100027.09
2023-03-12T06:05:04.799Z,100027.60
2023-03-12T06:07:37.047Z,100033.48
2023-03-12T06:10:11.785Z,100043.61
2023-03-12T06:12:44.150Z,100050.64
2023-03-12T06:15:16.399Z,100051.04
2023-03-12T06:17:48.798Z,100061.52
2023-03-12T06:20:21.727Z,100072.54
2023-03-12T06:22:54.114Z,100082.42
2023-03-12T06:25:26.448Z,100087.44
2023-03-12T06:27:58.836Z,100087.15
2023-03-12T06:30:31.199Z,100088.39
2023-03-12T06:33:04.941Z,100090.79
2023-03-12T06:35:37.388Z,100096.32
2023-03-12T06:38:09.668Z,100100.58
2023-03-12T06:40:42.074Z,100103.86
2023-03-12T06:43:14.381Z,100109.20
2023-03-12T06:45:46.776Z,100115.09
2023-03-12T06:48:19.288Z,100124.80
2023-03-12T06:50:51.875Z,100130.24
2023-03-12T06:53:25.938Z,100138.11
2023-03-12T06:55:58.371Z,100143.11
2023-03-12T06:58:30.828Z,100143.34
2023-03-12T07:01:03.198Z,100150.33
2023-03-12T07:03:35.773Z,100156.97
2023-03-12T07:06:07.021Z,100166.90
2023-03-12T07:08:39.346Z,100175.77
2023-03-12T07:11:12.177Z,100179.61
2023-03-12T07:13:44.657Z,100184.58
2023-03-12T07:16:18.059Z,100187.38
2023-03-12T07:18:50.406Z,100189.58
2023-03-12T07:21:23.962Z,100193.50
2023-03-12T07:23:56.755Z,100197.63
2023-03-12T07:26:29.275Z,100199.62
2023-03-12T07:29:01.712Z,100204.13
2023-03-12T07:31:34.241Z,100212.72
2023-03-12T07:34:06.832Z,100219.04
2023-03-12T07:36:39.426Z,100227.21
2023-03-12T07:39:11.788Z,100232.11
2023-03-12T07:41:44.684Z,100237.91
2023-03-12T07:44:17.210Z,100239.05
2023-03-12T07:46:49.607Z,100240.60
2023-03-12T07:49:22.101Z,100248.13
2023-03-12T07:51:55.247Z,100252.83
2023-03-12T07:54:30.831Z,100258.62
2023-03-12T07:57:03.468Z,100264.23
2023-03-12T07:59:34.129Z,100270.73
2023-03-12T08:02:06.554Z,100279.82
2023-03-12T08:04:39.168Z,100279.80
2023-03-12T08:07:09.943Z,100285.13
2023-03-12T08:09:42.932Z,100292.98
2023-03-12T08:12:15.350Z,100296.52
2023-03-12T08:14:47.822Z,100298.19
2023-03-12T08:17:20.593Z,100305.02
2023-03-12T08:19:53.034Z,100307.67
2023-03-12T08:22:25.658Z,100314.11
2023-03-12T08:24:56.168Z,100320.33
2023-03-12T08:27:29.462Z,100322.45
2023-03-12T08:30:01.803Z,100330.67
2023-03-12T08:32:34.915Z,100337.48
2023-03-12T08:35:07.900Z,100341.12
2023-03-12T08:37:42.984Z,100343.92
2023-03-12T08:40:16.038Z,100339.96
2023-03-12T08:42:48.460Z,100342.69
2023-03-12T08:45:20.933Z,100346.92
2023-03-12T08:47:51.748Z,100351.92
2023-03-12T08:50:26.399Z,100357.63
2023-03-12T08:52:58.848Z,100364.64
2023-03-12T08:55:31.186Z,100366.64
2023-03-12T08:58:03.559Z,100375.81
2023-03-12T09:00:35.945Z,100376.80
2023-03-12T09:03:08.722Z,100382.78
2023-03-12T09:05:39.356Z,100385.50
2023-03-12T09:08:12.297Z,100388.31
2023-03-12T09:10:50.945Z,100391.81
2023-03-12T09:13:23.441Z,100398.20
2023-03-12T09:15:55.766Z,100402.96
2023-03-12T09:18:31.973Z,100405.52
2023-03-12T09:21:04.869Z,100407.34
2023-03-12T09:23:37.231Z,100409.29
2023-03-12T09:26:12.129Z,100413.58
2023-03-12T09:28:45.148Z,100415.40
2023-03-12T09:31:17.553Z,100421.08
2023-03-12T09:33:50.147Z,100423.15
2023-03-12T09:36:22.662Z,100422.52
2023-03-12T09:38:55.149Z,100422.80
2023-03-12T09:41:29.563Z,100429.11
2023-03-12T09:44:04.260Z,100427.90
2023-03-12T09:46:42.464Z,100433.17
2023-03-12T09:49:19.853Z,100438.87
2023-03-12T09:52:35.163Z,100441.20
2023-03-12T09:55:18.631Z,100448.20
2023-03-12T09:57:52.292Z,100449.59
2023-03-12T10:00:27.624Z,100457.78
2023-03-12T10:03:12.295Z,100458.23
2023-03-12T10:06:01.640Z,100459.48
2023-03-12T10:08:43.668Z,100463.90
2023-03-12T10:11:23.798Z,100466.88
2023-03-12T10:14:16.134Z,100468.34
2023-03-12T10:17:04.442Z,100468.19
2023-03-12T10:19:52.628Z,100469.06
2023-03-12T10:22:33.914Z,100471.98
2023-03-12T10:25:15.432Z,100471.98
2023-03-12T10:27:51.478Z,100477.31
2023-03-12T10:30:33.262Z,100479.44
2023-03-12T10:33:07.079Z,100481.11
2023-03-12T10:35:39.664Z,100485.83
2023-03-12T10:38:16.798Z,100487.29
2023-03-12T10:40:50.401Z,100485.95
2023-03-12T10:43:22.964Z,100486.65
2023-03-12T10:46:03.535Z,100485.94
2023-03-12T10:48:36.015Z,100491.05
2023-03-12T10:51:09.897Z,100486.69
2023-03-12T10:53:44.945Z,100487.89
2023-03-12T10:56:20.297Z,100485.20
2023-03-12T10:58:54.658Z,100479.58
2023-03-12T11:01:32.995Z,100477.63
2023-03-12T11:04:16.808Z,100478.51
2023-03-12T11:07:14.575Z,100473.86
2023-03-12T11:09:47.083Z,100473.53
2023-03-12T11:12:31.954Z,100474.27
2023-03-12T11:15:22.468Z,100474.05
2023-03-12T11:17:56.399Z,100473.80
2023-03-12T11:20:31.440Z,100477.29
2023-03-12T11:23:16.637Z,100477.48
2023-03-12T11:25:57.846Z,100478.91
2023-03-12T11:28:37.222Z,100479.61
2023-03-12T11:31:12.794Z,100482.40
2023-03-12T11:33:45.341Z,100479.48
2023-03-12T11:36:18.611Z,100474.55
2023-03-12T11:38:58.064Z,100473.88
2023-03-12T11:41:50.290Z,100480.92
2023-03-12T11:44:29.350Z,100477.67
2023-03-12T11:47:14.127Z,100478.76
2023-03-12T11:49:58.686Z,100476.14
2023-03-12T11:52:36.770Z,100476.66
2023-03-12T11:55:20.450Z,100479.34
2023-03-12T11:58:02.775Z,100475.41
2023-03-12T12:00:42.447Z,100469.77
2023-03-12T12:03:36.522Z,100476.41
2023-03-12T12:06:19.513Z,100467.10
2023-03-12T12:09:00.547Z,100469.98
2023-03-12T12:11:45.374Z,100468.05
2023-03-12T12:14:30.568Z,100466.48
2023-03-12T12:17:16.085Z,100465.42
2023-03-12T12:20:09.919Z,100465.94
2023-03-12T12:22:48.243Z,100464.45
2023-03-12T12:25:39.836Z,100461.67
2023-03-12T12:28:30.166Z,100464.02
2023-03-12T12:31:14.292Z,100469.54
2023-03-12T12:34:02.381Z,100468.63
2023-03-12T12:36:37.437Z,100468.84
2023-03-12T12:39:15.683Z,100471.43
2023-03-12T12:41:53.533Z,100471.95
2023-03-12T12:44:29.614Z,100473.19
2023-03-12T12:47:05.687Z,100476.27
2023-03-12T12:49:44.165Z,100474.30
2023-03-12T12:52:21.305Z,100483.11
2023-03-12T12:55:01.540Z,100486.97
2023-03-12T12:57:39.558Z,100492.20
2023-03-12T13:00:26.179Z,100495.73
2023-03-12T13:03:00.701Z,100493.52
2023-03-12T13:05:47.109Z,100495.55
2023-03-12T13:08:39.694Z,100496.83
2023-03-12T13:11:27.576Z,100498.44
2023-03-12T13:14:36.840Z,100503.66
2023-03-12T13:17:27.164Z,100504.56
2023-03-12T13:20:13.306Z,100503.42
2023-03-12T13:23:07.641Z,100502.60
2023-03-12T13:25:58.942Z,100504.55
2023-03-12T13:28:42.053Z,100508.63
2023-03-12T13:31:37.781Z,100508.06
2023-03-12T13:34:46.240Z,100508.30
2023-03-12T13:38:00.899Z,100504.59
2023-03-12T13:40:54.234Z,100504.08
2023-03-12T13:43:57.497Z,100502.83
2023-03-12T13:46:47.286Z,100508.41
2023-03-12T13:49:23.369Z,100509.83
2023-03-12T13:52:03.270Z,100516.67
2023-03-12T13:54:44.941Z,100515.11
2023-03-12T13:57:31.453Z,100520.79
2023-03-12T14:00:07.517Z,100524.02
2023-03-12T14:02:42.960Z,100531.39
2023-03-12T14:05:17.929Z,100526.75
2023-03-12T14:08:12.827Z,100527.91
2023-03-12T14:10:54.830Z,100526.33
2023-03-12T14:13:44.362Z,100528.13
2023-03-12T14:16:22.833Z,100531.95
2023-03-12T14:18:56.411Z,100532.21
2023-03-12T14:21:39.514Z,100534.69
2023-03-12T14:24:27.117Z,100532.28
2023-03-12T14:27:01.176Z,100532.72
2023-03-12T14:29:39.362Z,100534.84
2023-03-12T14:32:17.416Z,100536.48
2023-03-12T14:34:54.942Z,100538.46
2023-03-12T14:37:32.504Z,100540.66
2023-03-12T14:40:08.357Z,100539.45
2023-03-12T14:42:42.052Z,100539.62
2023-03-12T14:45:18.481Z,100539.67
2023-03-12T14:47:54.082Z,100537.88
2023-03-12T14:50:28.843Z,100541.11
2023-03-12T14:53:15.792Z,100542.16
2023-03-12T14:55:48.131Z,100544.83
2023-03-12T14:58:22.489Z,100544.88
2023-03-12T15:01:05.546Z,100546.42
2023-03-12T15:03:45.627Z,100549.38
2023-03-12T15:06:26.441Z,100552.67
2023-03-12T15:08:59.656Z,100551.20
2023-03-12T15:11:33.045Z,100553.02
2023-03-12T15:14:16.874Z,100552.71
2023-03-12T15:16:49.854Z,100562.27
2023-03-12T15:19:25.391Z,100565.29
2023-03-12T15:21:57.803Z,100565.30
2023-03-12T15:24:31.971Z,100570.13
2023-03-12T15:27:23.639Z,100573.01
2023-03-12T15:29:58.366Z,100578.30
2023-03-12T15:32:34.242Z,100580.14
2023-03-12T15:35:16.800Z,100586.25
2023-03-12T15:37:53.754Z,100591.50
2023-03-12T15:40:33.966Z,100595.66
2023-03-12T15:43:07.771Z,100604.55
2023-03-12T15:45:41.119Z,100609.27
2023-03-12T15:48:22.728Z,100611.98
2023-03-12T15:50:55.432Z,100617.40
2023-03-12T15:53:46.896Z,100620.85
2023-03-12T15:56:26.532Z,100628.92
2023-03-12T15:59:08.285Z,100631.58
2023-03-12T16:01:58.164Z,100639.20
2023-03-12T16:04:31.370Z,100644.20
2023-03-12T16:07:07.811Z,100648.80
2023-03-12T16:09:41.291Z,100652.57
2023-03-12T16:12:13.844Z,100658.42
2023-03-12T16:14:46.154Z,100660.41
2023-03-12T16:17:19.794Z,100663.39
2023-03-12T16:19:55.157Z,100669.17
2023-03-12T16:22:35.760Z,100678.81
2023-03-12T16:25:35.064Z,100679.84
2023-03-12T16:28:30.394Z,100684.55
2023-03-12T16:31:02.850Z,100692.79
2023-03-12T16:33:36.987Z,100700.58
2023-03-12T16:36:17.293Z,100706.13
2023-03-12T16:38:50.222Z,100711.23
2023-03-12T16:41:26.028Z,100718.33
2023-03-12T16:43:59.034Z,100724.52
2023-03-12T16:46:34.162Z,100728.30
2023-03-12T16:49:07.266Z,100733.31
2023-03-12T16:51:40.619Z,100738.19
2023-03-12T16:54:14.484Z,100740.81
2023-03-12T16:56:49.772Z,100745.82
2023-03-12T16:59:28.679Z,100750.98
2023-03-12T17:02:02.045Z,100759.06
2023-03-12T17:04:35.361Z,100763.34
2023-03-12T17:07:08.686Z,100769.80
2023-03-12T17:09:41.765Z,100774.39
2023-03-12T17:12:30.293Z,100778.20
2023-03-12T17:15:06.774Z,100780.09
2023-03-12T17:17:39.282Z,100782.70
2023-03-12T17:20:15.138Z,100784.31
2023-03-12T17:22:48.105Z,100787.27
2023-03-12T17:25:25.637Z,100794.48
2023-03-12T17:27:58.422Z,100795.36
2023-03-12T17:30:31.730Z,100802.73
2023-03-12T17:33:08.317Z,100805.95
2023-03-12T17:35:41.413Z,100807.44
2023-03-12T17:38:15.264Z,100812.89
2023-03-12T17:40:47.992Z,100815.77
2023-03-12T17:43:20.296Z,100823.85
2023-03-12T17:45:52.835Z,100825.56
2023-03-12T17:48:26.609Z,100831.14
2023-03-12T17:50:59.448Z,100831.83
2023-03-12T17:53:30.260Z,100837.08
2023-03-12T17:56:04.031Z,100841.66
2023-03-12T17:58:34.737Z,100844.66
2023-03-12T18:01:07.501Z,100844.00
2023-03-12T18:03:40.045Z,100844.16
2023-03-12T18:06:12.729Z,100849.25
2023-03-12T18:08:45.206Z,100848.60
2023-03-12T18:11:17.724Z,100854.60
2023-03-12T18:13:51.393Z,100860.57
2023-03-12T18:16:23.759Z,100862.88
2023-03-12T18:18:56.226Z,100867.10
2023-03-12T18:21:28.581Z,100868.28
2023-03-12T18:24:17.139Z,100873.39
2023-03-12T18:26:52.412Z,100876.07
2023-03-12T18:29:24.813Z,100882.38
2023-03-12T18:31:57.264Z,100885.23
2023-03-12T18:34:29.702Z,100886.80
2023-03-12T18:37:15.205Z,100893.90
2023-03-12T18:40:31.238Z,100899.92
2023-03-12T18:43:23.168Z,100900.40
2023-03-12T18:45:55.753Z,100908.16
2023-03-12T18:48:28.260Z,100909.38
2023-03-12T18:51:02.520Z,100914.31
2023-03-12T18:53:36.664Z,100913.50
2023-03-12T18:56:14.086Z,100918.65
2023-03-12T18:58:47.581Z,100921.64
2023-03-12T19:01:21.944Z,100923.33
2023-03-12T19:03:57.211Z,100925.05
2023-03-12T19:06:49.845Z,100925.53
2023-03-12T19:09:24.034Z,100928.66
2023-03-12T19:11:56.775Z,100936.81
2023-03-12T19:14:28.265Z,100943.27
2023-03-12T19:17:06.329Z,100947.79
2023-03-12T19:19:44.346Z,100949.26
2023-03-12T19:22:17.053Z,100952.48
2023-03-12T19:24:53.476Z,100955.52
2023-03-12T19:27:33.534Z,100957.50
2023-03-12T19:30:11.958Z,100966.08
2023-03-12T19:32:52.825Z,100966.15
2023-03-12T19:35:34.743Z,100974.04
2023-03-12T19:38:09.027Z,100980.44
2023-03-12T19:40:43.003Z,100983.45
2023-03-12T19:43:30.581Z,100984.60
2023-03-12T19:46:13.115Z,100991.11
2023-03-12T19:48:45.725Z,100992.67
2023-03-12T19:51:20.373Z,100996.30
2023-03-12T19:53:52.870Z,100999.66
2023-03-12T19:56:25.317Z,101006.13
2023-03-12T19:58:57.797Z,101011.34
2023-03-12T20:01:30.354Z,101016.02
2023-03-12T20:04:07.939Z,101018.99
2023-03-12T20:06:40.472Z,101020.89
2023-03-12T20:09:12.939Z,101021.29
2023-03-12T20:11:45.593Z,101022.15
2023-03-12T20:14:16.308Z,101022.37
2023-03-12T20:16:49.064Z,101025.77
2023-03-12T20:19:21.635Z,101031.28
2023-03-12T20:21:57.469Z,101034.45
2023-03-12T20:24:29.799Z,101035.56
2023-03-12T20:27:02.175Z,101041.84
2023-03-12T20:29:34.437Z,101040.64
2023-03-12T20:32:07.199Z,101038.34
2023-03-12T20:34:39.773Z,101040.27
2023-03-12T20:37:12.213Z,101040.52
2023-03-12T20:39:45.030Z,101043.12
2023-03-12T20:42:17.484Z,101046.74
2023-03-12T20:44:49.845Z,101048.11
2023-03-12T20:47:22.254Z,101047.82
2023-03-12T20:49:54.821Z,101048.73
2023-03-12T20:52:25.684Z,101053.64
2023-03-12T20:54:58.055Z,101058.52
2023-03-12T20:57:30.517Z,101063.34
2023-03-12T21:00:03.023Z,101066.62
2023-03-12T21:02:35.686Z,101066.75
2023-03-12T21:05:11.568Z,101070.78
2023-03-12T21:07:44.017Z,101068.82
2023-03-12T21:10:16.691Z,101068.08
2023-03-12T21:12:49.126Z,101074.50
2023-03-12T21:15:21.542Z,101078.36
2023-03-12T21:17:53.982Z,101083.00
2023-03-12T21:20:26.486Z,101081.23
2023-03-12T21:23:01.008Z,101082.06
2023-03-12T21:25:36.187Z,101082.09
2023-03-12T21:28:09.839Z,101080.04
2023-03-12T21:30:42.104Z,101087.20
2023-03-12T21:33:14.569Z,101088.89
2023-03-12T21:35:48.515Z,101087.20
2023-03-12T21:38:20.909Z,101090.09
2023-03-12T21:40:54.469Z,101091.84
2023-03-12T21:43:27.210Z,101092.81
2023-03-12T21:45:57.961Z,101092.07
2023-03-12T21:48:30.359Z,101097.14
2023-03-12T21:51:06.391Z,101093.58
2023-03-12T21:53:39.541Z,101099.55
2023-03-12T21:56:12.843Z,101103.00
2023-03-12T21:58:45.608Z,101106.46
2023-03-12T22:01:17.087Z,101107.08
2023-03-12T22:03:50.205Z,101113.95
2023-03-12T22:06:23.018Z,101113.61
2023-03-12T22:08:56.220Z,101116.80
2023-03-12T22:11:28.567Z,101114.08
2023-03-12T22:14:00.980Z,101113.58
2023-03-12T22:16:33.474Z,101118.77
2023-03-12T22:19:07.550Z,101120.41
2023-03-12T22:21:39.882Z,101118.38
2023-03-12T22:24:13.285Z,101114.54
2023-03-12T22:26:51.547Z,101115.06
2023-03-12T22:29:23.898Z,101119.02
2023-03-12T22:31:56.394Z,101120.23
2023-03-12T22:34:27.072Z,101120.42
2023-03-12T22:36:59.401Z,101123.04
2023-03-12T22:39:31.925Z,101126.84
2023-03-12T22:42:04.390Z,101130.42
2023-03-12T22:44:36.816Z,101136.58
2023-03-12T22:47:09.361Z,101139.80
2023-03-12T22:49:40.059Z,101141.34
2023-03-12T22:52:12.334Z,101140.92
2023-03-12T22:54:44.670Z,101145.52
2023-03-12T22:57:17.024Z,101145.72
2023-03-12T22:59:51.277Z,101150.30
2023-03-12T23:02:23.662Z,101149.55
2023-03-12T23:04:56.090Z,101156.98
2023-03-12T23:07:30.752Z,101160.03
2023-03-12T23:10:03.123Z,101167.13
2023-03-12T23:12:38.521Z,101163.53
2023-03-12T23:15:12.234Z,101155.56
2023-03-12T23:17:44.592Z,101158.39
2023-03-12T23:20:17.477Z,101157.59
2023-03-12T23:22:49.805Z,101162.95
2023-03-12T23:25:22.249Z,101169.56
2023-03-12T23:27:54.648Z,101169.81
2023-03-12T23:30:27.106Z,101174.34
2023-03-12T23:32:59.437Z,101173.14
2023-03-12T23:35:31.261Z,101172.14
2023-03-12T23:38:06.349Z,101173.99
2023-03-12T23:40:38.747Z,101178.14
2023-03-12T23:43:11.037Z,101181.22
2023-03-12T23:45:43.578Z,101180.80
2023-03-12T23:48:15.993Z,101182.52
2023-03-12T23:50:48.376Z,101182.65
2023-03-12T23:53:20.810Z,101182.61
2023-03-12T23:56:00.815Z,101181.85
2023-03-12T23:58:33.353Z,101186.64
